createdAt,value
2019-02-04T00:01:38.422Z,14.18
2019-02-04T00:04:06.978Z,11.03
2019-02-04T00:06:35.536Z,14.17
2019-02-04T00:09:06.557Z,13.00
2019-02-04T00:11:35.128Z,12.37
2019-02-04T00:14:03.693Z,15.40
2019-02-04T00:16:40.698Z,11.67
2019-02-04T00:19:02.822Z,11.88
2019-02-04T00:21:31.371Z,12.83
2019-02-04T00:23:59.924Z,12.23
2019-02-04T00:26:28.467Z,9.03
2019-02-04T00:28:57.044Z,13.90
2019-02-04T00:31:25.579Z,11.03
2019-02-04T00:33:54.144Z,12.03
2019-02-04T00:36:22.703Z,13.73
2019-02-04T00:38:51.440Z,12.50
2019-02-04T00:41:19.971Z,12.80
2019-02-04T00:43:48.548Z,13.00
2019-02-04T00:46:17.292Z,13.53
2019-02-04T00:48:45.840Z,14.10
2019-02-04T00:51:14.382Z,16.10
2019-02-04T00:53:42.949Z,12.23
2019-02-04T00:56:11.512Z,10.33
2019-02-04T00:58:40.056Z,14.90
2019-02-04T01:01:09.077Z,13.18
2019-02-04T01:03:37.631Z,14.03
2019-02-04T01:06:06.318Z,13.27
2019-02-04T01:08:34.893Z,9.57
2019-02-04T01:11:03.817Z,13.47
2019-02-04T01:13:33.302Z,13.63
2019-02-04T01:16:02.302Z,13.60
2019-02-04T01:18:30.868Z,12.20
2019-02-04T01:20:59.446Z,12.80
2019-02-04T01:23:28.011Z,17.67
2019-02-04T01:25:56.550Z,12.73
2019-02-04T01:28:25.094Z,17.65
2019-02-04T01:30:54.121Z,13.50
2019-02-04T01:33:22.679Z,17.07
2019-02-04T01:35:52.036Z,16.30
2019-02-04T01:38:20.584Z,12.33
2019-02-04T01:40:49.129Z,16.60
2019-02-04T01:43:17.706Z,14.53
2019-02-04T01:45:46.622Z,17.33
2019-02-04T01:48:15.206Z,14.90
2019-02-04T01:50:43.777Z,18.80
2019-02-04T01:53:12.370Z,14.38
2019-02-04T01:55:40.947Z,15.30
2019-02-04T01:58:10.133Z,18.00
2019-02-04T02:00:39.651Z,18.60
2019-02-04T02:03:08.247Z,19.97
2019-02-04T02:05:36.804Z,15.00
2019-02-04T02:08:05.369Z,14.23
2019-02-04T02:10:33.923Z,16.82
2019-02-04T02:13:02.483Z,15.07
2019-02-04T02:15:31.421Z,13.97
2019-02-04T02:17:59.976Z,17.57
2019-02-04T02:20:30.049Z,16.93
2019-02-04T02:22:58.595Z,13.77
2019-02-04T02:25:27.177Z,12.93
2019-02-04T02:27:55.848Z,14.17
2019-02-04T02:30:27.028Z,17.00
2019-02-04T02:32:55.617Z,18.17
2019-02-04T02:35:24.175Z,16.67
2019-02-04T02:37:52.739Z,15.53
2019-02-04T02:40:29.231Z,16.07
2019-02-04T02:42:58.232Z,15.65
2019-02-04T02:45:26.811Z,13.67
2019-02-04T02:47:55.379Z,18.33
2019-02-04T02:50:24.143Z,16.20
2019-02-04T02:52:52.700Z,17.50
2019-02-04T02:55:21.276Z,20.03
2019-02-04T02:57:49.820Z,19.43
2019-02-04T03:00:20.369Z,16.00
2019-02-04T03:02:48.912Z,18.90
2019-02-04T03:05:17.547Z,15.58
2019-02-04T03:07:46.115Z,16.77
2019-02-04T03:10:17.365Z,16.37
2019-02-04T03:12:46.295Z,16.07
2019-02-04T03:15:15.289Z,13.93
2019-02-04T03:17:51.984Z,16.67
2019-02-04T03:20:14.911Z,17.27
2019-02-04T03:22:43.483Z,15.23
2019-02-04T03:25:12.064Z,18.40
2019-02-04T03:27:41.221Z,18.73
2019-02-04T03:30:25.320Z,17.70
2019-02-04T03:32:53.877Z,20.07
2019-02-04T03:35:22.440Z,19.30
2019-02-04T03:37:52.321Z,16.57
2019-02-04T03:40:22.903Z,16.40
2019-02-04T03:42:51.459Z,17.87
2019-02-04T03:45:20.117Z,14.25
2019-02-04T03:47:48.665Z,18.85
2019-02-04T03:50:17.226Z,19.60
2019-02-04T03:52:46.159Z,17.92
2019-02-04T03:55:16.515Z,18.80
2019-02-04T03:57:45.102Z,20.35
2019-02-04T04:00:25.004Z,21.13
2019-02-04T04:02:54.124Z,21.05
2019-02-04T04:05:23.188Z,17.50
2019-02-04T04:07:53.595Z,20.50
2019-02-04T04:10:22.033Z,19.13
2019-02-04T04:12:50.589Z,20.10
2019-02-04T04:15:19.719Z,18.77
2019-02-04T04:17:48.274Z,22.47
2019-02-04T04:20:17.354Z,22.70
2019-02-04T04:22:45.895Z,22.67
2019-02-04T04:25:15.037Z,22.10
2019-02-04T04:27:43.588Z,20.37
2019-02-04T04:30:20.309Z,21.30
2019-02-04T04:32:48.857Z,21.53
2019-02-04T04:35:18.212Z,25.17
2019-02-04T04:37:46.779Z,22.90
2019-02-04T04:40:15.547Z,23.83
2019-02-04T04:42:44.154Z,22.20
2019-02-04T04:45:15.083Z,27.43
2019-02-04T04:47:43.661Z,22.05
2019-02-04T04:50:12.206Z,23.17
2019-02-04T04:52:40.780Z,20.88
2019-02-04T04:55:10.626Z,19.03
2019-02-04T04:57:39.307Z,23.10
2019-02-04T05:00:10.284Z,22.37
2019-02-04T05:02:39.290Z,25.52
2019-02-04T05:05:08.761Z,21.50
2019-02-04T05:07:37.328Z,25.67
2019-02-04T05:10:07.260Z,24.00
2019-02-04T05:12:35.814Z,24.40
2019-02-04T05:15:06.729Z,25.23
2019-02-04T05:17:35.676Z,27.63
2019-02-04T05:20:05.064Z,32.23
2019-02-04T05:22:33.632Z,27.07
2019-02-04T05:25:02.188Z,24.50
2019-02-04T05:27:30.751Z,21.73
2019-02-04T05:29:59.299Z,25.90
2019-02-04T05:32:28.250Z,23.90
2019-02-04T05:34:57.547Z,25.27
2019-02-04T05:37:26.417Z,23.10
2019-02-04T05:39:54.979Z,27.03
2019-02-04T05:42:23.550Z,25.33
2019-02-04T05:44:52.108Z,28.07
2019-02-04T05:47:21.108Z,26.43
2019-02-04T05:49:49.688Z,24.17
2019-02-04T05:52:18.282Z,25.43
2019-02-04T05:54:46.839Z,28.57
2019-02-04T05:57:15.571Z,24.97
2019-02-04T05:59:44.136Z,22.52
2019-02-04T06:02:13.261Z,26.53
2019-02-04T06:04:41.886Z,25.23
2019-02-04T06:07:10.432Z,29.83
2019-02-04T06:09:40.372Z,24.13
2019-02-04T06:12:08.959Z,23.47
2019-02-04T06:14:37.517Z,26.90
2019-02-04T06:17:06.116Z,24.50
2019-02-04T06:19:34.676Z,27.10
2019-02-04T06:22:03.243Z,22.95
2019-02-04T06:24:31.810Z,25.27
2019-02-04T06:27:00.404Z,24.52
2019-02-04T06:29:28.964Z,23.40
2019-02-04T06:31:57.540Z,24.97
2019-02-04T06:34:26.118Z,27.23
2019-02-04T06:36:54.679Z,26.90
2019-02-04T06:39:23.229Z,27.23
2019-02-04T06:41:51.808Z,26.20
2019-02-04T06:44:20.392Z,25.68
2019-02-04T06:46:48.964Z,26.43
2019-02-04T06:49:17.916Z,22.07
2019-02-04T06:51:46.482Z,28.63
2019-02-04T06:54:15.045Z,25.10
2019-02-04T06:56:43.604Z,26.93
2019-02-04T06:59:12.176Z,25.83
2019-02-04T07:01:40.751Z,24.83
2019-02-04T07:04:09.675Z,23.90
2019-02-04T07:06:38.242Z,24.80
2019-02-04T07:09:09.852Z,21.93
2019-02-04T07:11:38.399Z,23.37
2019-02-04T07:14:07.399Z,26.17
2019-02-04T07:16:36.878Z,23.53
2019-02-04T07:19:06.522Z,23.00
2019-02-04T07:21:35.429Z,23.87
2019-02-04T07:24:04.068Z,24.47
2019-02-04T07:26:35.228Z,23.20
2019-02-04T07:29:04.420Z,23.80
2019-02-04T07:31:33.408Z,26.47
2019-02-04T07:34:02.851Z,25.53
2019-02-04T07:36:31.696Z,23.67
2019-02-04T07:39:01.107Z,26.63
2019-02-04T07:41:30.393Z,24.87
2019-02-04T07:44:01.000Z,24.60
2019-02-04T07:46:29.661Z,21.90
2019-02-04T07:48:59.645Z,22.87
2019-02-04T07:51:28.410Z,19.93
2019-02-04T07:53:57.551Z,20.57
2019-02-04T07:56:26.550Z,19.48
2019-02-04T07:58:55.228Z,18.93
2019-02-04T08:01:24.125Z,18.87
2019-02-04T08:03:54.276Z,16.33
2019-02-04T08:06:23.116Z,19.13
2019-02-04T08:08:54.794Z,17.83
2019-02-04T08:11:23.463Z,17.67
2019-02-04T08:13:53.535Z,15.85
2019-02-04T08:16:22.092Z,15.95
2019-02-04T08:18:50.824Z,17.23
2019-02-04T08:21:20.876Z,14.73
2019-02-04T08:23:51.062Z,15.40
2019-02-04T08:26:20.751Z,15.73
2019-02-04T08:28:49.432Z,16.00
2019-02-04T08:31:18.276Z,13.97
2019-02-04T08:33:47.167Z,13.08
2019-02-04T08:36:16.111Z,12.63
2019-02-04T08:38:44.937Z,12.33
2019-02-04T08:41:13.760Z,13.37
2019-02-04T08:43:42.438Z,11.60
2019-02-04T08:46:11.186Z,12.43
2019-02-04T08:48:40.444Z,9.30
2019-02-04T08:51:09.556Z,13.08
2019-02-04T08:53:38.420Z,10.53
2019-02-04T08:56:08.537Z,10.83
2019-02-04T08:58:37.348Z,14.10
2019-02-04T09:01:06.305Z,11.30
2019-02-04T09:03:34.874Z,11.10
2019-02-04T09:06:03.766Z,9.70
2019-02-04T09:08:32.365Z,11.17
2019-02-04T09:11:01.030Z,11.03
2019-02-04T09:13:29.568Z,11.03
2019-02-04T09:15:58.124Z,10.97
2019-02-04T09:18:26.686Z,10.13
2019-02-04T09:20:55.728Z,11.20
2019-02-04T09:23:24.276Z,11.03
2019-02-04T09:25:52.848Z,11.60
2019-02-04T09:28:21.387Z,10.70
2019-02-04T09:30:49.944Z,10.60
2019-02-04T09:33:18.488Z,11.10
2019-02-04T09:35:47.056Z,9.20
2019-02-04T09:38:15.658Z,12.00
2019-02-04T09:40:45.008Z,10.75
2019-02-04T09:43:13.703Z,9.03
2019-02-04T09:45:43.821Z,11.30
2019-02-04T09:48:15.972Z,9.93
2019-02-04T09:50:44.784Z,10.00
2019-02-04T09:53:13.328Z,9.80
2019-02-04T09:55:41.960Z,10.20
2019-02-04T09:58:10.503Z,11.60
2019-02-04T10:00:39.477Z,10.20
2019-02-04T10:03:08.060Z,10.17
2019-02-04T10:05:36.632Z,10.50
2019-02-04T10:08:05.886Z,10.53
2019-02-04T10:10:34.426Z,13.30
2019-02-04T10:13:03.040Z,10.75
2019-02-04T10:15:33.927Z,12.43
2019-02-04T10:18:02.532Z,11.80
2019-02-04T10:20:34.243Z,9.53
2019-02-04T10:23:03.056Z,9.68
2019-02-04T10:25:33.792Z,10.77
2019-02-04T10:28:02.401Z,12.60
2019-02-04T10:30:31.030Z,14.50
2019-02-04T10:32:59.596Z,11.83
2019-02-04T10:35:28.479Z,10.18
2019-02-04T10:37:57.040Z,10.57
2019-02-04T10:40:26.415Z,11.60
2019-02-04T10:42:55.171Z,9.43
2019-02-04T10:45:23.846Z,12.93
2019-02-04T10:47:52.490Z,12.27
2019-02-04T10:50:26.562Z,10.32
2019-02-04T10:52:55.173Z,10.93
2019-02-04T10:55:23.791Z,11.70
2019-02-04T10:57:52.424Z,10.47
2019-02-04T11:00:25.149Z,11.17
2019-02-04T11:02:53.864Z,10.10
2019-02-04T11:05:24.537Z,11.50
2019-02-04T11:07:53.196Z,11.57
2019-02-04T11:10:24.217Z,14.10
2019-02-04T11:12:52.901Z,11.10
2019-02-04T11:15:21.471Z,14.17
2019-02-04T11:17:50.008Z,10.73
2019-02-04T11:20:21.384Z,11.57
2019-02-04T11:22:49.966Z,11.20
2019-02-04T11:25:18.501Z,13.00
2019-02-04T11:27:47.082Z,12.63
2019-02-04T11:30:25.049Z,13.67
2019-02-04T11:32:54.183Z,12.20
2019-02-04T11:35:22.818Z,11.73
2019-02-04T11:37:51.414Z,11.43
2019-02-04T11:40:23.261Z,10.47
2019-02-04T11:42:52.096Z,11.70
2019-02-04T11:45:20.934Z,13.43
2019-02-04T11:47:50.044Z,11.30
2019-02-04T11:50:18.640Z,12.97
2019-02-04T11:52:47.202Z,13.13
2019-02-04T11:55:16.297Z,17.70
2019-02-04T11:57:44.843Z,13.97
2019-02-04T12:00:16.418Z,12.97
2019-02-04T12:02:45.339Z,12.90
2019-02-04T12:05:15.432Z,13.03
2019-02-04T12:07:44.011Z,20.87
2019-02-04T12:10:16.293Z,12.77
2019-02-04T12:12:44.843Z,14.20
2019-02-04T12:15:15.028Z,12.33
2019-02-04T12:17:44.632Z,15.23
2019-02-04T12:20:14.399Z,12.83
2019-02-04T12:22:42.961Z,13.63
2019-02-04T12:25:12.909Z,14.33
2019-02-04T12:27:42.217Z,12.45
2019-02-04T12:30:26.871Z,13.13
2019-02-04T12:32:56.052Z,11.53
2019-02-04T12:35:24.651Z,12.00
2019-02-04T12:37:53.200Z,12.50
2019-02-04T12:40:21.768Z,12.40
2019-02-04T12:42:50.720Z,11.17
2019-02-04T12:45:24.186Z,12.47
2019-02-04T12:47:53.028Z,11.33
2019-02-04T12:50:21.685Z,11.20
2019-02-04T12:52:50.346Z,11.27
2019-02-04T12:55:20.090Z,11.73
2019-02-04T12:57:49.205Z,12.20
2019-02-04T13:00:20.128Z,11.37
2019-02-04T13:02:49.355Z,14.87
2019-02-04T13:05:38.705Z,11.23
2019-02-04T13:08:08.285Z,17.60
2019-02-04T13:10:36.930Z,14.13
2019-02-04T13:13:08.538Z,11.47
2019-02-04T13:15:37.109Z,13.78
2019-02-04T13:18:05.971Z,10.53
2019-02-04T13:20:34.531Z,14.00
2019-02-04T13:23:03.489Z,12.37
2019-02-04T13:25:32.027Z,10.55
2019-02-04T13:28:01.739Z,13.07
2019-02-04T13:30:31.353Z,12.17
2019-02-04T13:32:59.899Z,12.57
2019-02-04T13:35:31.022Z,11.53
2019-02-04T13:37:58.771Z,12.30
2019-02-04T13:40:27.615Z,12.43
2019-02-04T13:42:56.296Z,12.07
2019-02-04T13:45:24.880Z,9.30
2019-02-04T13:47:53.479Z,11.00
2019-02-04T13:50:22.211Z,11.28
2019-02-04T13:52:52.100Z,10.97
2019-02-04T13:55:31.372Z,11.30
2019-02-04T13:58:00.019Z,11.30
2019-02-04T14:00:28.571Z,11.03
2019-02-04T14:02:59.690Z,10.10
2019-02-04T14:05:31.346Z,9.17
2019-02-04T14:07:59.696Z,11.67
2019-02-04T14:10:35.952Z,8.77
2019-02-04T14:13:06.697Z,9.75
2019-02-04T14:15:35.807Z,10.03
2019-02-04T14:18:05.331Z,9.00
2019-02-04T14:20:33.870Z,8.37
2019-02-04T14:23:02.443Z,9.77
2019-02-04T14:25:30.987Z,7.30
2019-02-04T14:27:59.573Z,8.00
2019-02-04T14:30:30.171Z,7.67
2019-02-04T14:32:58.744Z,8.77
2019-02-04T14:35:27.283Z,7.58
2019-02-04T14:37:55.853Z,7.07
2019-02-04T14:40:26.031Z,6.22
2019-02-04T14:43:01.312Z,8.57
2019-02-04T14:46:08.280Z,7.05
2019-02-04T14:49:21.708Z,7.73
2019-02-04T14:52:43.615Z,8.53
2019-02-04T14:55:48.359Z,6.40
2019-02-04T14:58:41.903Z,7.23
2019-02-04T15:01:50.785Z,5.10
2019-02-04T15:04:51.109Z,8.07
2019-02-04T15:07:56.927Z,5.10
2019-02-04T15:10:43.978Z,6.17
2019-02-04T15:13:53.104Z,7.22
2019-02-04T15:16:29.027Z,4.53
2019-02-04T15:19:25.266Z,6.73
2019-02-04T15:22:14.465Z,5.87
2019-02-04T15:25:21.723Z,10.33
2019-02-04T15:28:08.972Z,6.87
2019-02-04T15:30:48.504Z,5.40
2019-02-04T15:33:35.548Z,9.67
2019-02-04T15:36:56.455Z,7.47
2019-02-04T15:40:05.738Z,7.33
2019-02-04T15:43:11.184Z,6.60
2019-02-04T15:46:12.380Z,6.03
2019-02-04T15:49:21.276Z,8.00
2019-02-04T15:51:54.488Z,7.53
2019-02-04T15:54:23.044Z,6.23
2019-02-04T15:56:51.604Z,6.93
2019-02-04T15:59:20.171Z,11.23
2019-02-04T16:01:48.712Z,5.77
2019-02-04T16:04:27.767Z,6.83
2019-02-04T16:06:56.323Z,6.57
2019-02-04T16:09:24.888Z,6.03
2019-02-04T16:11:53.461Z,6.78
2019-02-04T16:14:22.008Z,8.20
2019-02-04T16:16:57.013Z,7.43
2019-02-04T16:19:25.576Z,6.23
2019-02-04T16:21:54.121Z,5.90
2019-02-04T16:24:22.699Z,7.93
2019-02-04T16:26:52.169Z,6.67
2019-02-04T16:29:21.970Z,6.40
2019-02-04T16:31:50.568Z,19.77
2019-02-04T16:34:19.113Z,48.20
2019-02-04T16:36:47.684Z,13.70
2019-02-04T16:39:16.228Z,11.88
2019-02-04T16:41:45.895Z,13.13
2019-02-04T16:44:14.508Z,7.87
2019-02-04T16:46:43.467Z,16.57
2019-02-04T16:49:13.035Z,11.60
2019-02-04T16:51:41.716Z,10.77
2019-02-04T16:54:10.272Z,9.50
2019-02-04T16:56:38.843Z,11.10
2019-02-04T16:59:07.557Z,16.03
2019-02-04T17:01:36.467Z,7.33
2019-02-04T17:04:05.016Z,6.87
2019-02-04T17:06:33.577Z,13.93
2019-02-04T17:09:02.378Z,9.43
2019-02-04T17:11:31.043Z,11.57
2019-02-04T17:13:59.590Z,9.43
2019-02-04T17:16:28.152Z,11.43
2019-02-04T17:18:56.713Z,7.70
2019-02-04T17:21:25.271Z,24.07
2019-02-04T17:23:53.872Z,12.73
2019-02-04T17:26:22.436Z,7.83
2019-02-04T17:28:51.196Z,7.03
2019-02-04T17:31:19.929Z,7.40
2019-02-04T17:33:48.899Z,6.60
2019-02-04T17:36:17.497Z,11.43
2019-02-04T17:38:46.139Z,12.93
2019-02-04T17:41:14.699Z,11.13
2019-02-04T17:43:43.307Z,9.63
2019-02-04T17:46:11.904Z,9.55
2019-02-04T17:48:40.892Z,7.07
2019-02-04T17:51:09.839Z,12.10
2019-02-04T17:53:38.598Z,14.07
2019-02-04T17:56:09.132Z,10.93
2019-02-04T17:58:37.843Z,9.93
2019-02-04T18:01:06.521Z,11.90
2019-02-04T18:03:35.594Z,9.93
2019-02-04T18:06:04.513Z,11.07
2019-02-04T18:08:33.192Z,8.80
2019-02-04T18:11:01.894Z,8.00
2019-02-04T18:13:30.451Z,9.97
2019-02-04T18:15:59.084Z,16.40
2019-02-04T18:18:27.676Z,40.90
2019-02-04T18:20:56.252Z,32.00
2019-02-04T18:23:24.809Z,13.67
2019-02-04T18:25:53.372Z,8.17
2019-02-04T18:28:21.942Z,7.77
2019-02-04T18:30:50.480Z,9.87
2019-02-04T18:33:19.063Z,11.90
2019-02-04T18:35:47.624Z,11.43
2019-02-04T18:38:16.218Z,11.20
2019-02-04T18:40:45.266Z,10.63
2019-02-04T18:43:16.873Z,9.43
2019-02-04T18:45:46.819Z,10.73
2019-02-04T18:48:15.851Z,11.43
2019-02-04T18:50:46.407Z,8.43
2019-02-04T18:53:15.416Z,6.50
2019-02-04T18:55:44.376Z,7.85
2019-02-04T18:58:13.099Z,8.23
2019-02-04T19:00:42.560Z,10.87
2019-02-04T19:03:17.310Z,11.43
2019-02-04T19:05:41.600Z,10.87
2019-02-04T19:08:10.691Z,9.03
2019-02-04T19:10:39.797Z,8.87
2019-02-04T19:13:08.561Z,8.23
2019-02-04T19:15:37.268Z,9.10
2019-02-04T19:18:09.134Z,10.80
2019-02-04T19:20:39.776Z,7.27
2019-02-04T19:23:09.040Z,10.43
2019-02-04T19:25:37.622Z,10.80
2019-02-04T19:28:06.697Z,11.17
2019-02-04T19:30:45.156Z,9.33
2019-02-04T19:33:14.471Z,10.65
2019-02-04T19:35:43.176Z,10.13
2019-02-04T19:38:12.005Z,9.73
2019-02-04T19:40:40.648Z,11.20
2019-02-04T19:43:09.300Z,10.13
2019-02-04T19:45:37.980Z,9.73
2019-02-04T19:48:06.842Z,10.70
2019-02-04T19:50:35.472Z,12.50
2019-02-04T19:53:04.102Z,12.57
2019-02-04T19:55:33.038Z,10.67
2019-02-04T19:58:01.600Z,12.70
2019-02-04T20:00:30.551Z,11.00
2019-02-04T20:02:59.138Z,12.37
2019-02-04T20:05:27.727Z,13.40
2019-02-04T20:07:56.332Z,11.63
2019-02-04T20:10:25.938Z,11.67
2019-02-04T20:12:56.780Z,11.67
2019-02-04T20:15:26.892Z,13.33
2019-02-04T20:17:55.435Z,12.37
2019-02-04T20:20:24.581Z,12.20
2019-02-04T20:22:53.188Z,12.40
2019-02-04T20:25:23.583Z,14.07
2019-02-04T20:27:52.122Z,13.73
2019-02-04T20:30:29.274Z,14.87
2019-02-04T20:32:57.844Z,14.67
2019-02-04T20:35:27.600Z,10.87
2019-02-04T20:37:56.169Z,11.27
2019-02-04T20:40:31.166Z,11.53
2019-02-04T20:43:00.224Z,12.43
2019-02-04T20:45:28.812Z,11.45
2019-02-04T20:47:57.366Z,14.37
2019-02-04T20:50:31.132Z,12.73
2019-02-04T20:52:59.934Z,10.83
2019-02-04T20:55:28.811Z,14.03
2019-02-04T20:57:57.851Z,15.77
2019-02-04T21:00:27.828Z,30.67
2019-02-04T21:02:56.407Z,22.67
2019-02-04T21:05:25.104Z,21.30
2019-02-04T21:07:53.886Z,17.80
2019-02-04T21:10:23.887Z,18.50
2019-02-04T21:12:52.952Z,16.55
2019-02-04T21:15:22.352Z,18.30
2019-02-04T21:17:52.515Z,16.45
2019-02-04T21:20:24.828Z,18.60
2019-02-04T21:22:53.773Z,20.82
2019-02-04T21:25:22.749Z,20.83
2019-02-04T21:27:52.378Z,20.23
2019-02-04T21:30:27.837Z,17.67
2019-02-04T21:32:57.018Z,20.60
2019-02-04T21:35:26.127Z,13.87
2019-02-04T21:37:55.517Z,14.30
2019-02-04T21:40:25.679Z,9.87
2019-02-04T21:42:54.248Z,13.93
2019-02-04T21:45:23.092Z,12.73
2019-02-04T21:47:51.665Z,14.23
2019-02-04T21:50:22.034Z,11.00
2019-02-04T21:52:52.511Z,14.37
2019-02-04T21:55:21.888Z,11.53
2019-02-04T21:57:50.492Z,14.40
2019-02-04T22:00:24.033Z,13.45
2019-02-04T22:02:52.878Z,13.47
2019-02-04T22:05:23.587Z,11.20
2019-02-04T22:07:52.147Z,11.50
2019-02-04T22:10:22.772Z,12.53
2019-02-04T22:12:51.730Z,16.43
2019-02-04T22:15:20.979Z,15.47
2019-02-04T22:17:49.840Z,10.83
2019-02-04T22:20:19.011Z,13.97
2019-02-04T22:22:47.575Z,12.60
2019-02-04T22:25:19.664Z,13.53
2019-02-04T22:27:47.668Z,11.57
2019-02-04T22:30:20.976Z,15.23
2019-02-04T22:32:50.158Z,11.95
2019-02-04T22:35:19.141Z,11.90
2019-02-04T22:37:48.001Z,10.27
2019-02-04T22:40:21.456Z,11.60
2019-02-04T22:42:50.836Z,11.73
2019-02-04T22:45:19.859Z,10.00
2019-02-04T22:47:49.016Z,12.83
2019-02-04T22:50:22.928Z,12.23
2019-02-04T22:52:51.603Z,10.00
2019-02-04T22:55:31.533Z,10.57
2019-02-04T22:57:52.910Z,11.60
2019-02-04T23:01:00.596Z,11.08
2019-02-04T23:03:29.288Z,9.63
2019-02-04T23:05:57.899Z,9.40
2019-02-04T23:08:26.708Z,11.43
2019-02-04T23:10:55.597Z,11.80
2019-02-04T23:13:24.294Z,10.83
2019-02-04T23:15:54.055Z,9.57
2019-02-04T23:18:22.856Z,12.47
2019-02-04T23:20:51.412Z,12.40
2019-02-04T23:23:19.958Z,9.63
2019-02-04T23:25:48.519Z,8.10
2019-02-04T23:28:17.066Z,9.80
2019-02-04T23:30:46.097Z,9.73
2019-02-04T23:33:14.649Z,9.83
2019-02-04T23:35:43.199Z,11.47
2019-02-04T23:38:11.751Z,10.43
2019-02-04T23:40:40.699Z,11.33
2019-02-04T23:43:09.289Z,10.67
2019-02-04T23:45:38.028Z,10.63
2019-02-04T23:48:06.567Z,12.23
2019-02-04T23:50:35.122Z,8.93
2019-02-04T23:53:04.179Z,8.77
2019-02-04T23:55:32.722Z,11.83
2019-02-04T23:58:01.276Z,12.10
